Time;durP1;ratioP1;P1;durP2;ratioP2;P2;SDS_P1;SDS_P2;PMS_P1;PMS_P2;Temp;Humidity;BMP_temperature;BMP_pressure;BME280_temperature;BME280_humidity;BME280_pressure;Samples;Min_cycle;Max_cycle;Signal;HPM_P1;HPM_P2
2021/01/25 00:00:10;;;;;;;21.43;16.33;;;3.10;99.90;;;3.23;88.20;99651.56;5092707;28;20085;-72
2021/01/25 00:02:41;;;;;;;22.17;15.97;;;3.30;99.90;;;3.41;87.48;99673.41;5092751;28;20051;-72
2021/01/25 00:05:11;;;;;;;19.60;16.27;;;3.40;99.90;;;3.42;87.12;99671.69;5092694;28;20047;-72
2021/01/25 00:07:40;;;;;;;22.88;16.75;;;3.40;99.90;;;3.22;86.52;99670.69;5092776;28;20060;-72
2021/01/25 00:10:09;;;;;;;25.17;18.07;;;3.40;99.90;;;3.24;87.00;99671.56;5092556;28;20048;-72
2021/01/25 00:12:38;;;;;;;29.60;18.00;;;3.30;99.90;;;3.51;86.63;99682.16;5092664;28;20048;-72
2021/01/25 00:15:07;;;;;;;30.27;19.37;;;3.40;99.90;;;3.77;85.79;99687.50;5092460;28;20044;-69
2021/01/25 00:17:34;;;;;;;22.43;17.37;;;3.60;99.90;;;3.76;85.40;99684.00;5092576;28;20555;-70
2021/01/25 00:20:02;;;;;;;27.97;19.60;;;3.70;99.90;;;3.86;85.25;99677.94;5092737;28;20058;-71
2021/01/25 00:22:29;;;;;;;25.20;18.33;;;3.80;99.90;;;3.92;84.76;99685.81;5092526;28;20051;-71
2021/01/25 00:24:57;;;;;;;25.50;18.60;;;3.90;99.90;;;3.98;84.82;99691.06;5092621;28;20071;-71
2021/01/25 00:27:24;;;;;;;25.83;18.67;;;4.00;99.90;;;4.05;84.42;99694.56;5092576;28;20048;-71
2021/01/25 00:29:53;;;;;;;24.70;18.97;;;4.00;99.90;;;4.06;83.65;99691.97;5074751;28;20048;-71
2021/01/25 00:32:20;;;;;;;23.40;19.00;;;4.10;99.90;;;4.10;83.81;99688.50;5078267;28;20063;-71
2021/01/25 00:34:48;;;;;;;22.87;17.97;;;4.10;99.90;;;4.05;82.82;99681.47;5096647;28;20122;-71
2021/01/25 00:37:15;;;;;;;20.97;17.47;;;4.10;99.90;;;4.12;83.42;99694.56;5096483;28;20044;-70
2021/01/25 00:39:42;;;;;;;23.63;18.80;;;4.10;99.90;;;4.13;83.08;99695.44;5096237;28;20044;-70
2021/01/25 00:42:10;;;;;;;24.50;18.67;;;4.20;99.90;;;4.11;82.80;99694.56;5096297;28;20036;-71
2021/01/25 00:44:37;;;;;;;25.20;18.07;;;4.10;99.90;;;4.00;82.89;99704.13;5077947;28;20519;-71
2021/01/25 00:47:05;;;;;;;22.80;18.27;;;4.00;99.90;;;4.04;83.10;99701.56;5096323;28;20055;-71
2021/01/25 00:49:33;;;;;;;23.67;18.63;;;4.10;99.90;;;4.09;82.84;99710.28;5078002;28;20040;-71
2021/01/25 00:52:00;;;;;;;27.00;19.53;;;4.10;99.90;;;4.13;82.69;99716.38;5078083;28;20056;-70
2021/01/25 00:54:28;;;;;;;26.43;19.00;;;4.10;99.90;;;4.00;82.63;99675.38;5096147;28;20518;-71
2021/01/25 00:56:55;;;;;;;25.27;19.83;;;4.20;99.90;;;4.28;82.48;99716.41;5077760;28;20051;-70
2021/01/25 00:59:23;;;;;;;26.40;20.33;;;4.20;99.90;;;4.33;82.23;99712.06;5077987;28;20550;-70
2021/01/25 01:01:50;;;;;;;27.20;21.10;;;4.30;99.90;;;4.27;82.30;99720.78;5096036;28;20079;-70
2021/01/25 01:04:18;;;;;;;31.73;22.97;;;4.20;99.90;;;4.31;81.75;99719.06;5095993;28;20122;-70
2021/01/25 01:06:46;;;;;;;28.83;21.33;;;4.30;99.90;;;4.29;81.56;99708.59;5095813;28;20047;-70
2021/01/25 01:09:13;;;;;;;30.27;22.07;;;4.30;99.90;;;4.40;81.84;99719.94;5077618;28;20079;-71
2021/01/25 01:11:41;;;;;;;30.47;21.37;;;4.30;99.90;;;4.37;81.41;99719.06;5095664;28;20052;-70
2021/01/25 01:14:08;;;;;;;28.50;21.07;;;4.30;99.90;;;4.34;81.05;99722.53;5095917;28;20056;-70
2021/01/25 01:16:36;;;;;;;29.33;21.50;;;4.30;99.90;;;4.24;81.20;99733.00;5077370;28;20064;-70
2021/01/25 01:19:03;;;;;;;29.73;21.47;;;4.20;99.90;;;4.02;81.16;99686.72;5077556;28;20556;-70
2021/01/25 01:21:31;;;;;;;28.03;21.83;;;4.20;99.90;;;3.65;81.42;99612.53;5095523;28;20101;-71
2021/01/25 01:23:59;;;;;;;28.33;20.80;;;4.30;99.90;;;4.33;81.58;99736.50;5095495;28;20036;-70
2021/01/25 01:26:26;;;;;;;30.50;21.03;;;4.30;99.90;;;4.23;81.32;99739.09;5095424;28;20060;-70
2021/01/25 01:28:54;;;;;;;27.53;21.63;;;4.20;99.90;;;4.18;81.76;99740.84;5095310;28;20121;-72
2021/01/25 01:31:21;;;;;;;29.67;22.57;;;4.20;99.90;;;4.20;81.76;99739.94;5077329;28;20051;-71
2021/01/25 01:33:49;;;;;;;31.07;22.93;;;4.20;99.90;;;4.14;81.27;99732.06;5095405;28;20489;-70
2021/01/25 01:36:16;;;;;;;26.80;21.17;;;4.20;99.90;;;4.21;81.00;99746.94;5095226;28;20181;-71
2021/01/25 01:38:44;;;;;;;26.70;20.67;;;4.20;99.90;;;4.19;81.09;99756.53;5095147;28;20067;-70
2021/01/25 01:41:12;;;;;;;28.00;21.03;;;4.20;99.90;;;4.22;81.19;99753.91;5077148;28;20436;-70
2021/01/25 01:43:39;;;;;;;27.70;21.90;;;4.20;99.90;;;4.22;81.14;99747.81;5095087;28;20047;-70
2021/01/25 01:46:07;;;;;;;29.50;21.50;;;4.20;99.90;;;4.15;81.51;99764.34;5095202;28;20044;-70
2021/01/25 01:48:35;;;;;;;28.67;21.37;;;4.20;99.90;;;4.17;81.68;99773.97;5095047;28;20065;-70
2021/01/25 01:51:03;;;;;;;29.83;22.07;;;4.20;99.90;;;4.21;81.71;99767.88;5094968;28;20046;-70
2021/01/25 01:53:30;;;;;;;26.07;20.80;;;4.20;99.90;;;4.20;81.73;99775.72;5076721;28;20501;-70
2021/01/25 01:56:00;;;;;;;25.40;20.83;;;4.20;99.90;;;4.25;81.89;99766.13;5094845;28;20044;-70
2021/01/25 01:58:28;;;;;;;27.07;20.87;;;4.20;99.90;;;4.16;81.61;99747.81;5076808;28;20460;-70
2021/01/25 02:00:57;;;;;;;25.87;20.53;;;4.20;99.90;;;4.31;81.16;99779.25;5094749;28;20108;-70
2021/01/25 02:03:25;;;;;;;27.87;20.57;;;4.30;99.90;;;4.26;81.70;99775.72;5094809;28;20047;-70
2021/01/25 02:05:53;;;;;;;27.13;21.07;;;4.30;99.90;;;4.29;81.63;99775.75;5094624;28;20059;-70
2021/01/25 02:08:22;;;;;;;27.90;20.97;;;4.20;99.90;;;4.37;81.48;99774.91;5094565;28;20051;-70
2021/01/25 02:10:53;;;;;;;28.00;20.17;;;4.30;99.90;;;4.35;81.59;99784.50;5094677;28;20044;-71
2021/01/25 02:13:23;;;;;;;24.73;20.87;;;4.30;99.90;;;4.30;81.01;99780.97;5094613;28;20055;-70
2021/01/25 02:15:51;;;;;;;24.93;20.63;;;4.30;99.90;;;4.41;81.48;99794.94;5094478;28;20048;-71
2021/01/25 02:18:18;;;;;;;25.00;19.63;;;4.30;99.90;;;4.45;81.04;99783.63;5094430;28;20117;-70
2021/01/25 02:20:46;;;;;;;24.63;19.93;;;4.40;99.90;;;4.48;81.14;99799.34;5076408;28;20477;-70
2021/01/25 02:23:38;;;;;;;23.53;19.67;;;4.40;99.90;;;4.50;80.91;99799.34;5094503;28;20048;-70
2021/01/25 02:26:15;;;;;;;25.73;19.93;;;4.40;99.90;;;4.37;80.60;99782.75;5076323;28;20142;-70
2021/01/25 02:28:45;;;;;;;25.20;19.00;;;4.50;99.90;;;4.47;80.56;99800.22;5094235;28;20044;-70
2021/01/25 02:31:12;;;;;;;24.27;19.97;;;4.40;99.90;;;4.51;80.79;99806.31;5076025;28;20051;-70
2021/01/25 02:33:47;;;;;;;23.43;19.03;;;4.40;99.90;;;4.52;80.69;99808.09;5076201;28;20066;-71
2021/01/25 02:36:15;;;;;;;23.70;19.90;;;4.50;99.90;;;4.58;80.58;99806.38;5094571;28;20370;-70
2021/01/25 02:38:45;;;;;;;26.07;19.20;;;4.50;99.90;;;4.38;80.11;99770.53;5094062;28;20055;-70
2021/01/25 02:41:15;;;;;;;26.97;19.20;;;4.50;99.90;;;4.42;80.59;99787.97;5075757;28;20526;-70
2021/01/25 02:43:44;;;;;;;24.80;20.42;;;4.50;99.90;;;4.56;80.58;99817.69;5093984;28;20405;-70
2021/01/25 02:46:13;;;;;;;23.65;20.02;;;4.50;99.90;;;3.81;80.16;99718.03;5093909;28;20051;-70
2021/01/25 02:48:41;;;;;;;25.90;20.13;;;4.50;99.90;;;4.54;80.52;99816.81;5093868;28;20044;-70
2021/01/25 02:51:08;;;;;;;22.90;19.87;;;4.50;99.90;;;4.55;80.53;99814.19;5093784;28;20043;-70
2021/01/25 02:53:36;;;;;;;26.53;19.27;;;4.50;99.90;;;4.59;80.37;99822.94;5093016;28;20132;-71
2021/01/25 02:56:03;;;;;;;26.13;19.07;;;4.50;99.90;;;4.63;80.41;99823.84;5075497;28;20103;-70
2021/01/25 02:58:31;;;;;;;27.23;19.33;;;4.60;99.90;;;4.60;79.88;99822.06;5093682;28;20048;-70
2021/01/25 03:01:00;;;;;;;26.00;19.13;;;4.60;99.90;;;4.61;80.17;99809.88;5093803;28;20470;-70
2021/01/25 03:03:30;;;;;;;24.33;19.73;;;4.60;99.90;;;4.66;79.77;99823.84;5093461;28;20067;-71
2021/01/25 03:05:58;;;;;;;25.38;19.05;;;4.60;99.90;;;4.68;79.46;99829.94;5093658;28;20044;-71
2021/01/25 03:08:26;;;;;;;24.17;20.10;;;4.60;99.90;;;4.70;79.37;99834.31;5093435;28;20144;-70
2021/01/25 03:10:55;;;;;;;25.83;19.50;;;4.70;99.90;;;4.64;79.48;99831.69;5093328;28;20097;-70
2021/01/25 03:13:26;;;;;;;22.47;18.80;;;4.60;99.90;;;4.69;79.78;99835.19;5093374;28;20036;-70
2021/01/25 03:15:55;;;;;;;22.90;18.57;;;4.70;99.90;;;4.26;79.53;99760.00;5093373;28;20178;-71
2021/01/25 03:18:26;;;;;;;25.07;19.57;;;4.60;99.90;;;4.71;79.18;99843.03;5075200;28;20040;-70
2021/01/25 03:20:55;;;;;;;23.23;19.88;;;4.60;99.90;;;4.74;78.84;99846.56;5093257;28;20286;-70
2021/01/25 03:23:23;;;;;;;25.60;19.33;;;4.70;99.90;;;4.65;78.86;99824.69;5093203;28;20571;-70
2021/01/25 03:25:50;;;;;;;24.37;19.50;;;4.70;99.90;;;4.79;78.95;99846.53;5093233;28;20062;-70
2021/01/25 03:28:18;;;;;;;24.80;19.67;;;4.70;99.90;;;4.77;78.54;99843.06;5093256;28;20063;-71
2021/01/25 03:30:45;;;;;;;26.27;19.50;;;4.70;99.90;;;4.77;78.82;99843.94;5093173;28;20107;-70
2021/01/25 03:33:13;;;;;;;25.80;18.83;;;4.80;99.90;;;4.81;78.73;99847.44;5093061;28;20036;-70
2021/01/25 03:35:42;;;;;;;22.97;18.13;;;4.80;99.90;;;4.74;78.68;99853.53;5092985;28;20051;-71
2021/01/25 03:38:10;;;;;;;25.58;19.65;;;4.70;99.90;;;4.75;78.10;99850.03;5093191;28;20131;-70
2021/01/25 03:40:37;;;;;;;25.77;19.80;;;4.70;99.90;;;4.80;78.13;99864.03;5093227;28;20495;-70
2021/01/25 03:43:04;;;;;;;26.23;20.03;;;4.70;99.90;;;4.75;78.25;99869.25;5074954;28;20059;-70
2021/01/25 03:45:32;;;;;;;25.07;20.27;;;4.70;99.90;;;4.75;77.31;99877.09;5092929;28;20097;-70
2021/01/25 03:47:59;;;;;;;27.67;22.00;;;4.70;99.90;;;4.68;77.91;99864.88;5093105;28;20040;-70
2021/01/25 03:50:27;;;;;;;27.00;21.00;;;4.70;99.90;;;4.76;77.80;99880.59;5093032;28;20044;-70
2021/01/25 03:53:00;;;;;;;27.47;21.77;;;4.70;99.90;;;4.68;77.37;99866.59;5093014;28;20051;-71
2021/01/25 03:55:27;;;;;;;27.67;21.07;;;4.70;99.90;;;4.81;77.35;99890.22;5092859;28;20505;-70
2021/01/25 03:57:55;;;;;;;30.00;20.50;;;4.70;99.90;;;4.64;77.38;99857.00;5092778;28;20115;-70
2021/01/25 04:00:23;;;;;;;29.10;21.80;;;4.80;99.90;;;4.80;76.96;99900.69;5092749;28;20425;-71
2021/01/25 04:02:50;;;;;;;28.43;21.53;;;4.70;99.90;;;4.82;77.39;99898.97;5092634;28;20032;-71
2021/01/25 04:05:18;;;;;;;29.43;21.47;;;4.70;99.90;;;4.95;77.26;99916.44;5076379;28;20109;-71
2021/01/25 04:07:45;;;;;;;25.13;21.27;;;4.80;99.90;;;4.96;76.90;99905.09;5096912;28;20040;-70
2021/01/25 04:10:14;;;;;;;26.70;21.23;;;4.80;99.90;;;4.96;76.84;99905.97;5078637;28;20068;-71
2021/01/25 04:12:41;;;;;;;29.57;22.43;;;4.90;99.90;;;4.88;76.81;99889.34;5096953;28;20036;-72
2021/01/25 04:15:10;;;;;;;29.67;22.30;;;4.90;99.90;;;5.01;76.74;99926.94;5078422;28;20078;-70
2021/01/25 04:17:38;;;;;;;27.90;22.90;;;4.90;99.90;;;4.70;76.65;99877.97;5096987;28;20052;-71
2021/01/25 04:20:07;;;;;;;28.43;21.70;;;4.90;99.90;;;4.84;76.21;99897.22;5078727;28;20048;-71
2021/01/25 04:22:36;;;;;;;27.90;22.63;;;4.90;99.90;;;5.01;76.22;99942.66;5096967;28;20570;-70
2021/01/25 04:25:06;;;;;;;28.47;21.57;;;4.90;99.90;;;5.00;75.96;99943.53;5096640;28;20047;-70
2021/01/25 04:27:34;;;;;;;27.83;21.13;;;4.90;99.90;;;5.07;76.52;99947.94;5078433;28;20445;-70
2021/01/25 04:30:06;;;;;;;30.47;21.93;;;4.90;99.90;;;5.10;75.86;99955.78;5096406;28;20044;-70
2021/01/25 04:32:35;;;;;;;26.70;21.40;;;5.00;99.90;;;5.07;76.02;99942.69;5096563;28;20040;-70
2021/01/25 04:35:04;;;;;;;26.07;20.73;;;5.00;99.90;;;4.97;75.82;99919.94;5096444;28;20043;-70
2021/01/25 04:37:32;;;;;;;26.23;21.83;;;5.00;99.90;;;5.03;75.38;99940.94;5096427;28;20047;-70
2021/01/25 04:39:59;;;;;;;30.83;22.17;;;5.00;99.90;;;5.02;75.31;99939.16;5096926;28;20123;-70
2021/01/25 04:42:27;;;;;;;23.97;21.03;;;5.00;99.90;;;4.97;75.69;99939.16;5078016;28;20052;-71
2021/01/25 04:44:57;;;;;;;28.77;22.13;;;4.90;99.90;;;5.03;75.74;99954.03;5096762;28;20139;-70
2021/01/25 04:47:25;;;;;;;28.40;21.08;;;4.90;99.90;;;5.13;75.59;99950.56;5096245;28;20444;-71
2021/01/25 04:49:53;;;;;;;29.57;22.53;;;5.00;99.90;;;5.01;75.27;99958.41;5096124;28;20044;-70
2021/01/25 04:52:21;;;;;;;28.43;22.60;;;4.90;99.90;;;4.98;75.50;99956.63;5096073;28;20056;-71
2021/01/25 04:54:49;;;;;;;29.37;21.47;;;4.90;99.90;;;5.01;75.75;99972.38;5095957;28;20615;-70
2021/01/25 04:57:17;;;;;;;27.80;22.40;;;4.90;99.90;;;5.00;75.33;99973.22;5096191;28;20101;-70
2021/01/25 04:59:46;;;;;;;31.90;22.60;;;4.90;99.90;;;4.88;75.21;99954.00;5096063;28;20076;-70
2021/01/25 05:02:14;;;;;;;28.60;21.80;;;4.90;99.90;;;5.05;75.50;99979.34;5096045;28;20451;-70
2021/01/25 05:04:42;;;;;;;27.70;20.93;;;4.90;99.90;;;5.00;75.32;99994.19;5095982;28;20118;-70
2021/01/25 05:07:09;;;;;;;28.47;21.50;;;4.90;99.90;;;4.98;74.89;99989.81;5095771;28;20063;-69
2021/01/25 05:09:36;;;;;;;29.83;22.93;;;4.90;99.90;;;4.98;75.54;99995.94;5095584;28;20082;-68
2021/01/25 05:12:05;;;;;;;28.27;22.23;;;4.90;99.90;;;5.00;74.94;99998.53;5096074;28;20390;-70
2021/01/25 05:14:39;;;;;;;29.13;22.37;;;4.80;99.90;;;4.88;74.81;99967.09;5095892;28;20127;-71
2021/01/25 05:17:08;;;;;;;29.90;22.47;;;5.00;99.90;;;5.04;74.34;100005.56;5095223;28;20386;-72
2021/01/25 05:19:38;;;;;;;29.97;22.77;;;4.90;99.90;;;4.90;74.88;99991.50;5077378;28;20121;-70
2021/01/25 05:22:13;;;;;;;29.53;23.20;;;4.90;99.90;;;4.85;74.77;100002.00;5095475;28;20044;-69
2021/01/25 05:24:46;;;;;;;28.13;22.63;;;4.80;99.90;;;4.96;74.61;100015.13;5095663;28;20075;-69
2021/01/25 05:27:23;;;;;;;28.60;22.10;;;4.80;99.90;;;5.03;74.44;100027.41;5095775;28;20040;-69
2021/01/25 05:29:50;;;;;;;27.80;23.00;;;4.90;99.90;;;4.41;74.65;99941.53;5095379;28;20428;-68
2021/01/25 05:32:19;;;;;;;27.90;23.60;;;4.80;99.90;;;4.77;74.66;100006.31;5095328;28;20043;-69
2021/01/25 05:34:49;;;;;;;27.47;21.43;;;4.80;99.90;;;4.84;75.04;100039.53;5095485;28;20048;-68
2021/01/25 05:37:17;;;;;;;28.33;22.30;;;4.70;99.90;;;4.81;75.09;100023.81;5077297;28;20127;-68
2021/01/25 05:39:46;;;;;;;30.67;22.53;;;4.70;99.90;;;4.89;75.07;100042.16;5095511;28;20048;-68
2021/01/25 05:42:15;;;;;;;31.97;22.17;;;4.70;99.90;;;4.76;74.66;100020.28;5077153;28;20464;-68
2021/01/25 05:44:42;;;;;;;27.40;21.23;;;4.70;99.90;;;4.39;74.83;99956.34;5076801;28;20048;-68
2021/01/25 05:47:11;;;;;;;27.73;21.97;;;4.70;99.90;;;4.85;74.60;100029.91;5095060;28;20097;-68
2021/01/25 05:49:39;;;;;;;26.77;21.50;;;4.70;99.90;;;4.83;74.71;100042.13;5095149;28;20097;-68
2021/01/25 05:52:15;;;;;;;30.10;22.47;;;4.70;99.90;;;4.86;74.40;100040.41;5095094;28;20047;-68
2021/01/25 05:54:43;;;;;;;27.50;20.93;;;4.70;99.90;;;4.85;74.66;100046.53;5095015;28;20106;-68
2021/01/25 05:57:10;;;;;;;28.20;22.07;;;4.70;99.90;;;4.09;74.41;99919.56;5094920;28;20493;-69
2021/01/25 05:59:38;;;;;;;26.00;21.53;;;4.70;99.90;;;4.73;73.98;100024.63;5094690;28;20066;-68
2021/01/25 06:02:05;;;;;;;28.07;22.17;;;4.70;99.90;;;4.86;73.98;100063.97;5095028;28;20127;-69
2021/01/25 06:04:33;;;;;;;28.77;21.53;;;4.70;99.90;;;4.83;73.99;100063.97;5094707;28;20044;-69
2021/01/25 06:07:08;;;;;;;29.63;21.77;;;4.70;99.90;;;4.85;73.99;100071.84;5094705;28;20036;-68
2021/01/25 06:09:47;;;;;;;29.73;22.80;;;4.70;99.90;;;4.86;73.94;100081.47;5094888;28;20051;-68
2021/01/25 06:12:16;;;;;;;31.37;22.97;;;4.70;99.90;;;4.84;74.28;100083.19;5076491;28;20055;-68
2021/01/25 06:14:52;;;;;;;29.10;23.23;;;4.60;99.90;;;4.82;74.09;100093.63;5094527;28;20544;-70
2021/01/25 06:17:20;;;;;;;29.80;22.40;;;4.60;99.90;;;4.68;74.27;100086.59;5094680;28;20051;-68
2021/01/25 06:19:49;;;;;;;26.27;21.70;;;4.50;99.90;;;4.77;74.44;100097.09;5094486;28;20047;-68
2021/01/25 06:22:18;;;;;;;31.07;23.87;;;4.60;99.90;;;4.71;74.51;100095.31;5094360;28;20052;-70
2021/01/25 06:24:46;;;;;;;28.97;22.43;;;4.50;99.90;;;4.64;74.47;100087.41;5094320;28;20043;-69
2021/01/25 06:27:14;;;;;;;27.30;21.63;;;4.50;99.90;;;4.67;74.50;100096.16;5094032;28;20043;-68
2021/01/25 06:29:44;;;;;;;28.23;21.13;;;4.50;99.90;;;4.67;73.92;100100.53;5093871;28;20036;-68
2021/01/25 06:32:15;;;;;;;28.20;21.13;;;4.50;99.90;;;4.69;73.86;100106.66;5094293;28;20044;-68
2021/01/25 06:34:45;;;;;;;30.10;22.47;;;4.50;99.90;;;4.64;74.20;100097.91;5076123;28;20052;-68
2021/01/25 06:37:14;;;;;;;26.90;21.13;;;4.50;99.90;;;4.70;73.82;100108.41;5094020;28;20044;-68
2021/01/25 06:39:45;;;;;;;28.88;21.08;;;4.50;99.90;;;4.69;73.61;100112.78;5075987;28;20531;-68
2021/01/25 06:42:17;;;;;;;29.17;21.23;;;4.50;99.90;;;4.63;73.65;100123.19;5094058;28;20048;-68
2021/01/25 06:44:47;;;;;;;26.73;22.20;;;4.50;99.90;;;4.57;74.21;100124.03;5075936;28;20440;-68
2021/01/25 06:47:16;;;;;;;24.37;20.43;;;4.40;99.90;;;4.54;73.77;100139.75;5075465;28;20136;-68
2021/01/25 06:49:45;;;;;;;25.93;21.27;;;4.40;99.90;;;4.47;73.61;100127.44;5093753;28;20050;-68
2021/01/25 06:52:14;;;;;;;26.57;21.53;;;4.40;99.90;;;4.55;74.00;100141.47;5093784;28;20109;-68
2021/01/25 06:54:44;;;;;;;25.57;20.90;;;4.30;99.90;;;4.41;73.97;100127.38;5075686;28;20059;-68
2021/01/25 06:57:22;;;;;;;28.15;20.40;;;4.30;99.90;;;4.52;74.01;100140.59;5093788;28;20405;-68
2021/01/25 06:59:51;;;;;;;28.07;20.87;;;4.30;99.90;;;4.35;73.80;100111.66;5093695;28;20097;-68
2021/01/25 07:02:23;;;;;;;28.70;21.17;;;4.30;99.90;;;4.53;73.64;100147.56;5093630;28;20044;-68
2021/01/25 07:04:57;;;;;;;26.57;20.90;;;4.30;99.90;;;4.53;74.11;100150.16;5075512;28;20146;-68
2021/01/25 07:07:27;;;;;;;28.13;21.23;;;4.30;99.90;;;4.53;73.88;100155.41;5093971;28;20044;-68
2021/01/25 07:09:58;;;;;;;25.45;20.35;;;4.30;99.90;;;4.53;74.10;100169.38;5093681;28;20053;-68
2021/01/25 07:12:26;;;;;;;25.60;19.60;;;4.30;99.90;;;4.41;73.76;100148.34;5093504;28;20397;-68
2021/01/25 07:14:54;;;;;;;29.13;19.93;;;4.30;99.90;;;4.53;73.78;100178.97;5093661;28;20040;-68
2021/01/25 07:17:21;;;;;;;25.43;20.33;;;4.40;99.90;;;4.31;73.63;100137.78;5093576;28;20076;-68
2021/01/25 07:19:50;;;;;;;23.70;19.40;;;4.30;99.90;;;4.51;73.78;100176.34;5093081;28;20570;-68
2021/01/25 07:22:18;;;;;;;26.10;19.97;;;4.40;99.90;;;4.49;73.24;100180.69;5093292;28;20059;-68
2021/01/25 07:24:45;;;;;;;29.03;20.53;;;4.30;99.90;;;4.39;73.66;100181.47;5075072;28;20044;-68
2021/01/25 07:27:14;;;;;;;28.53;20.10;;;4.30;99.90;;;4.25;73.60;100188.34;5093146;28;20118;-68
2021/01/25 07:29:41;;;;;;;22.90;18.67;;;4.10;99.90;;;4.17;74.04;100184.75;5093140;28;20089;-68
2021/01/25 07:32:13;;;;;;;23.17;18.63;;;4.10;99.90;;;4.21;73.93;100206.59;5093306;28;20051;-68
2021/01/25 07:34:44;;;;;;;25.07;19.03;;;4.00;99.90;;;3.68;73.57;100098.78;5093135;28;20128;-68
2021/01/25 07:37:12;;;;;;;25.53;20.10;;;4.10;99.90;;;4.11;73.57;100181.19;5093129;28;20036;-69
2021/01/25 07:39:39;;;;;;;27.57;21.70;;;4.10;99.90;;;4.27;73.55;100207.56;5092705;28;20050;-68
2021/01/25 07:42:07;;;;;;;26.23;21.13;;;4.10;99.90;;;4.20;73.60;100207.47;5074296;28;20048;-68
2021/01/25 07:44:35;;;;;;;27.20;21.27;;;4.10;99.90;;;3.41;74.04;100078.47;5093098;28;20036;-68
2021/01/25 07:47:04;;;;;;;24.40;19.13;;;4.10;99.90;;;4.15;74.32;100215.28;5074866;28;20044;-68
2021/01/25 07:49:32;;;;;;;28.83;22.73;;;4.10;99.90;;;4.35;74.35;100221.59;5092916;28;20123;-68
2021/01/25 07:52:00;;;;;;;28.50;20.70;;;4.20;99.90;;;4.52;75.00;100227.88;5092743;28;20044;-68
2021/01/25 07:54:30;;;;;;;25.50;20.60;;;4.40;99.90;;;4.27;74.64;100177.88;5093032;28;20385;-68
2021/01/25 07:56:59;;;;;;;23.33;18.50;;;4.60;99.90;;;4.78;73.93;100241.16;5092954;28;20040;-68
2021/01/25 07:59:35;;;;;;;21.97;18.10;;;4.60;99.90;;;4.82;73.53;100248.19;5092809;28;20040;-68
2021/01/25 08:02:06;;;;;;;20.60;17.47;;;4.60;99.90;;;5.09;73.65;100247.56;5092664;28;20036;-69
2021/01/25 08:04:38;;;;;;;23.70;19.33;;;4.80;99.90;;;5.37;72.98;100254.72;5092678;28;20512;-68
2021/01/25 08:07:06;;;;;;;23.33;18.20;;;5.10;99.90;;;5.70;72.62;100259.28;5074800;28;20425;-68
2021/01/25 08:09:38;;;;;;;21.53;18.13;;;5.40;99.90;;;5.70;71.32;100277.66;5092560;28;20048;-68
2021/01/25 08:12:07;;;;;;;24.30;18.93;;;5.50;99.90;;;5.89;70.65;100272.53;5092753;28;20460;-68
2021/01/25 08:14:44;;;;;;;19.33;16.80;;;5.60;99.90;;;6.19;70.69;100264.78;5092651;28;20044;-68
2021/01/25 08:17:19;;;;;;;25.03;19.23;;;5.90;99.90;;;6.81;69.37;100283.34;5092905;28;20370;-68
2021/01/25 08:19:54;;;;;;;24.43;19.87;;;6.50;99.90;;;7.21;68.20;100287.72;5074699;28;20044;-68
2021/01/25 08:22:27;;;;;;;27.87;19.83;;;7.00;99.90;;;7.57;66.49;100289.44;5092745;28;20040;-68
2021/01/25 08:24:57;;;;;;;25.00;19.87;;;7.40;99.90;;;7.86;65.54;100287.59;5074540;28;20059;-68
2021/01/25 08:27:25;;;;;;;23.87;19.77;;;7.80;99.90;;;8.19;64.31;100300.66;5092338;28;20439;-68
2021/01/25 08:30:01;;;;;;;25.07;19.57;;;8.10;99.90;;;8.49;63.37;100311.97;5092215;28;20044;-68
2021/01/25 08:32:40;;;;;;;22.77;18.92;;;8.50;99.90;;;8.81;62.45;100315.28;5092974;28;20048;-69
2021/01/25 08:35:10;;;;;;;22.10;18.42;;;8.80;99.90;;;9.01;61.40;100308.13;5092342;28;20489;-68
2021/01/25 08:37:38;;;;;;;23.90;17.77;;;9.00;99.90;;;9.33;61.39;100314.03;5092370;28;20059;-68
2021/01/25 08:40:16;;;;;;;25.95;18.52;;;9.30;99.90;;;9.63;60.10;100321.69;5092421;28;20068;-68
2021/01/25 08:42:43;;;;;;;22.70;17.75;;;9.60;99.90;;;9.87;59.06;100326.72;5074386;28;20105;-68
2021/01/25 08:45:22;;;;;;;23.40;18.23;;;9.80;99.90;;;10.12;58.38;100331.78;5092422;28;20044;-68
2021/01/25 08:47:50;;;;;;;23.25;17.95;;;9.90;99.90;;;10.59;58.23;100325.00;5092207;28;20414;-68
2021/01/25 08:50:20;;;;;;;20.90;17.33;;;10.40;99.90;;;10.59;56.85;100260.66;5092090;28;20093;-68
2021/01/25 08:53:00;;;;;;;20.17;17.05;;;10.80;99.90;;;11.30;55.71;100336.31;5077221;28;20044;-68
2021/01/25 08:55:36;;;;;;;20.25;17.00;;;11.10;99.90;;;11.67;54.83;100337.50;5096348;28;20044;-68
2021/01/25 08:58:16;;;;;;;18.90;16.75;;;11.40;99.90;;;12.06;53.92;100343.84;5096022;28;20032;-68
2021/01/25 09:00:48;;;;;;;22.13;16.52;;;11.80;99.90;;;12.23;52.81;100344.41;5077775;28;20139;-68
2021/01/25 09:03:19;;;;;;;20.73;17.15;;;12.00;99.90;;;12.75;52.30;100352.16;5095936;28;20047;-68
2021/01/25 09:05:47;;;;;;;19.85;17.60;;;12.50;99.90;;;13.05;51.54;100372.75;5095913;28;20054;-68
2021/01/25 09:08:14;;;;;;;22.17;17.98;;;13.00;99.90;;;13.24;51.06;100359.00;5095822;28;20040;-68
2021/01/25 09:10:42;;;;;;;22.52;17.38;;;13.20;99.90;;;12.81;50.35;100265.31;5095776;28;20044;-68
2021/01/25 09:13:09;;;;;;;21.73;17.92;;;13.40;99.90;;;13.56;49.92;100371.53;5095769;28;20036;-68
2021/01/25 09:15:37;;;;;;;23.40;17.33;;;13.60;99.90;;;13.57;49.65;100363.50;5077099;28;20094;-68
2021/01/25 09:18:07;;;;;;;22.63;18.77;;;13.70;99.90;;;13.69;49.11;100375.63;5077468;28;20040;-68
2021/01/25 09:20:35;;;;;;;26.02;19.20;;;13.80;99.90;;;13.64;49.23;100366.03;5095655;28;20139;-68
2021/01/25 09:23:03;;;;;;;23.45;17.98;;;13.80;99.90;;;13.77;48.84;100386.94;5095915;28;20501;-68
2021/01/25 09:25:31;;;;;;;22.42;17.77;;;13.90;99.90;;;13.59;48.50;100390.91;5095452;28;20044;-69
2021/01/25 09:27:59;;;;;;;20.63;17.60;;;13.80;99.90;;;13.41;49.18;100396.66;5095333;28;20118;-69
2021/01/25 09:30:28;;;;;;;22.60;17.98;;;13.60;99.90;;;13.41;48.77;100401.13;5095327;28;20044;-68
2021/01/25 09:32:56;;;;;;;23.05;18.42;;;13.50;99.90;;;13.40;48.62;100410.88;5095398;28;20044;-69
2021/01/25 09:35:26;;;;;;;22.23;17.33;;;13.50;99.90;;;13.43;48.64;100400.16;5095386;28;20101;-67
2021/01/25 09:37:53;;;;;;;22.70;18.30;;;13.50;99.90;;;13.48;48.80;100421.31;5095302;28;20055;-68
2021/01/25 09:40:21;;;;;;;23.50;17.83;;;13.50;99.90;;;13.58;48.66;100420.19;5095499;28;20481;-68
2021/01/25 09:42:49;;;;;;;26.35;18.00;;;13.60;99.90;;;13.72;48.54;100422.53;5095199;28;20044;-68
2021/01/25 09:45:19;;;;;;;21.42;18.58;;;13.70;99.90;;;13.40;48.18;100346.22;5095122;28;20202;-68
2021/01/25 09:47:46;;;;;;;21.13;17.58;;;13.80;99.90;;;13.87;48.05;100424.81;5095180;28;20435;-69
2021/01/25 09:50:16;;;;;;;26.00;19.60;;;13.90;99.90;;;14.04;48.17;100435.88;5094987;28;20055;-68
2021/01/25 09:52:47;;;;;;;20.15;17.90;;;14.10;99.90;;;14.07;48.11;100415.41;5095060;28;20044;-68
2021/01/25 09:55:18;;;;;;;23.90;19.13;;;14.20;99.90;;;13.58;48.04;100313.91;5094984;28;20502;-68
2021/01/25 09:57:45;;;;;;;24.05;19.55;;;14.30;99.90;;;14.26;47.75;100421.13;5095148;28;20047;-68
2021/01/25 10:00:16;;;;;;;23.58;18.35;;;14.50;99.90;;;14.46;47.69;100440.09;5076716;28;20405;-68
2021/01/25 10:02:44;;;;;;;22.63;19.42;;;14.50;99.90;;;14.49;47.31;100432.06;5075370;28;20105;-68
2021/01/25 10:05:14;;;;;;;25.15;19.27;;;14.70;99.90;;;14.63;47.63;100461.84;5076642;28;20520;-68
2021/01/25 10:07:42;;;;;;;24.60;19.48;;;14.70;99.90;;;14.72;46.90;100455.38;5094688;28;20044;-69
2021/01/25 10:10:13;;;;;;;23.67;18.73;;;14.70;99.90;;;14.70;47.11;100460.75;5094702;28;20043;-69
2021/01/25 10:12:41;;;;;;;25.50;19.48;;;14.70;99.90;;;14.80;47.43;100470.22;5094649;28;20127;-69
2021/01/25 10:15:13;;;;;;;24.45;18.48;;;14.70;99.90;;;14.87;47.18;100471.78;5094529;28;20040;-67
2021/01/25 10:17:40;;;;;;;23.05;19.10;;;14.80;99.90;;;15.00;46.94;100478.50;5076360;28;20048;-69
2021/01/25 10:20:11;;;;;;;24.77;20.33;;;15.00;99.90;;;15.05;47.21;100473.06;5094348;28;20073;-68